createdAt,value
2023-01-30T00:01:46.594Z,-0.35
2023-01-30T00:04:17.143Z,-0.46
2023-01-30T00:06:45.608Z,-0.43
2023-01-30T00:09:16.122Z,-0.38
2023-01-30T00:11:44.035Z,-0.41
2023-01-30T00:14:11.982Z,-0.42
2023-01-30T00:16:40.016Z,-0.37
2023-01-30T00:19:08.001Z,-0.45
2023-01-30T00:21:35.977Z,-0.47
2023-01-30T00:24:04.133Z,-0.42
2023-01-30T00:26:33.431Z,-0.47
2023-01-30T00:29:01.500Z,-0.37
2023-01-30T00:31:29.472Z,-0.53
2023-01-30T00:33:57.428Z,-0.44
2023-01-30T00:36:25.338Z,-0.62
2023-01-30T00:38:53.258Z,-0.50
2023-01-30T00:41:21.883Z,-0.55
2023-01-30T00:44:08.611Z,-0.50
2023-01-30T00:46:54.232Z,-0.48
2023-01-30T00:49:22.334Z,-0.58
2023-01-30T00:51:50.223Z,-0.57
2023-01-30T00:54:18.159Z,-0.54
2023-01-30T00:56:46.085Z,-0.56
2023-01-30T00:59:15.633Z,-0.59
2023-01-30T01:01:43.594Z,-0.54
2023-01-30T01:04:11.899Z,-0.58
2023-01-30T01:06:39.867Z,-0.53
2023-01-30T01:09:08.576Z,-0.56
2023-01-30T01:11:37.185Z,-0.52
2023-01-30T01:14:06.512Z,-0.57
2023-01-30T01:16:36.590Z,-0.59
2023-01-30T01:19:04.892Z,-0.61
2023-01-30T01:21:32.877Z,-0.63
2023-01-30T01:24:01.671Z,-0.66
2023-01-30T01:26:29.794Z,-0.67
2023-01-30T01:28:58.361Z,-0.64
2023-01-30T01:31:26.503Z,-0.66
2023-01-30T01:33:55.937Z,-0.70
2023-01-30T01:36:51.679Z,-0.74
2023-01-30T01:39:12.013Z,-0.73
2023-01-30T01:41:38.904Z,-0.73
2023-01-30T01:44:08.738Z,-0.74
2023-01-30T01:46:39.891Z,-0.79
2023-01-30T01:49:17.029Z,-0.73
2023-01-30T01:51:51.830Z,-0.75
2023-01-30T01:54:26.804Z,-0.71
2023-01-30T01:56:54.926Z,-0.75
2023-01-30T01:59:27.927Z,-0.74
2023-01-30T02:01:59.362Z,-0.76
2023-01-30T02:04:49.217Z,-0.78
2023-01-30T02:07:19.859Z,-0.71
2023-01-30T02:09:47.991Z,-0.66
2023-01-30T02:12:16.590Z,-0.76
2023-01-30T02:14:45.569Z,-0.87
2023-01-30T02:17:13.566Z,-0.85
2023-01-30T02:19:51.578Z,-0.85
2023-01-30T02:22:33.168Z,-0.87
2023-01-30T02:25:30.890Z,-0.79
2023-01-30T02:28:30.049Z,-0.79
2023-01-30T02:31:28.315Z,-0.87
2023-01-30T02:34:08.767Z,-0.83
2023-01-30T02:36:47.784Z,-0.95
2023-01-30T02:39:27.986Z,-0.81
2023-01-30T02:42:06.612Z,-1.02
2023-01-30T02:44:43.809Z,-0.85
2023-01-30T02:47:17.217Z,-0.91
2023-01-30T02:49:50.742Z,-0.82
2023-01-30T02:52:18.771Z,-0.90
2023-01-30T02:54:46.735Z,-0.95
2023-01-30T02:57:21.180Z,-0.87
2023-01-30T02:59:52.163Z,-0.88
2023-01-30T03:02:43.271Z,-0.92
2023-01-30T03:05:30.114Z,-0.94
2023-01-30T03:08:13.261Z,-0.91
2023-01-30T03:10:50.778Z,-0.89
2023-01-30T03:13:27.313Z,-0.91
2023-01-30T03:16:01.010Z,-0.96
2023-01-30T03:18:30.806Z,-0.97
2023-01-30T03:21:05.541Z,-0.98
2023-01-30T03:23:33.631Z,-1.03
2023-01-30T03:26:04.287Z,-1.06
2023-01-30T03:28:33.299Z,-1.06
2023-01-30T03:31:01.279Z,-1.01
2023-01-30T03:33:30.621Z,-1.15
2023-01-30T03:35:58.725Z,-1.07
2023-01-30T03:38:26.683Z,-1.07
2023-01-30T03:40:54.701Z,-1.09
2023-01-30T03:43:23.825Z,-1.06
2023-01-30T03:45:51.714Z,-1.01
2023-01-30T03:48:19.722Z,-0.99
2023-01-30T03:50:49.005Z,-0.91
2023-01-30T03:53:16.966Z,-0.96
2023-01-30T03:55:45.944Z,-1.01
2023-01-30T03:58:13.998Z,-1.06
2023-01-30T04:00:42.008Z,-1.09
2023-01-30T04:03:10.037Z,-1.04
2023-01-30T04:05:37.936Z,-1.13
2023-01-30T04:08:07.375Z,-1.04
2023-01-30T04:10:35.272Z,-1.23
2023-01-30T04:13:03.216Z,-1.03
2023-01-30T04:15:31.125Z,-1.07
2023-01-30T04:17:59.060Z,-1.08
2023-01-30T04:20:27.109Z,-1.04
2023-01-30T04:22:55.750Z,-1.01
2023-01-30T04:25:25.073Z,-1.07
2023-01-30T04:27:53.106Z,-1.09
2023-01-30T04:30:21.261Z,-1.01
2023-01-30T04:32:49.205Z,-1.06
2023-01-30T04:35:17.481Z,-1.13
2023-01-30T04:37:45.550Z,-1.18
2023-01-30T04:40:13.999Z,-1.12
2023-01-30T04:42:43.317Z,-1.02
2023-01-30T04:45:12.219Z,-1.14
2023-01-30T04:47:40.189Z,-1.09
2023-01-30T04:50:09.076Z,-1.07
2023-01-30T04:52:38.913Z,-1.13
2023-01-30T04:55:08.331Z,-1.16
2023-01-30T04:57:36.249Z,-1.13
2023-01-30T05:00:07.073Z,-1.15
2023-01-30T05:02:34.981Z,-1.18
2023-01-30T05:05:02.868Z,-1.18
2023-01-30T05:07:30.777Z,-1.13
2023-01-30T05:09:58.762Z,-1.15
2023-01-30T05:12:26.712Z,-1.13
2023-01-30T05:14:54.661Z,-1.10
2023-01-30T05:17:24.086Z,-1.21
2023-01-30T05:19:52.071Z,-1.09
2023-01-30T05:22:20.005Z,-1.12
2023-01-30T05:24:48.694Z,-1.07
2023-01-30T05:27:16.722Z,-1.06
2023-01-30T05:29:44.698Z,-1.01
2023-01-30T05:32:15.097Z,-0.99
2023-01-30T05:34:44.504Z,-1.03
2023-01-30T05:37:12.938Z,-1.01
2023-01-30T05:39:40.890Z,-1.12
2023-01-30T05:42:08.874Z,-1.12
2023-01-30T05:44:36.798Z,-1.10
2023-01-30T05:47:04.790Z,-1.07
2023-01-30T05:49:32.713Z,-1.05
2023-01-30T05:52:02.028Z,-1.10
2023-01-30T05:54:29.970Z,-1.10
2023-01-30T05:56:57.908Z,-1.18
2023-01-30T05:59:25.838Z,-1.25
2023-01-30T06:01:53.755Z,-1.10
2023-01-30T06:04:21.702Z,-1.20
2023-01-30T06:06:50.834Z,-1.21
2023-01-30T06:09:20.188Z,-1.13
2023-01-30T06:11:48.120Z,-1.11
2023-01-30T06:14:16.029Z,-1.07
2023-01-30T06:16:43.978Z,-0.96
2023-01-30T06:19:12.713Z,-0.92
2023-01-30T06:21:40.691Z,-1.03
2023-01-30T06:24:08.910Z,-0.94
2023-01-30T06:26:38.222Z,-0.91
2023-01-30T06:29:06.367Z,-0.92
2023-01-30T06:31:35.044Z,-0.89
2023-01-30T06:34:03.048Z,-0.91
2023-01-30T06:36:31.043Z,-0.85
2023-01-30T06:38:59.000Z,-0.81
2023-01-30T06:41:26.949Z,-0.78
2023-01-30T06:43:56.829Z,-0.85
2023-01-30T06:46:24.989Z,-0.82
2023-01-30T06:48:53.041Z,-0.81
2023-01-30T06:51:20.950Z,-0.81
2023-01-30T06:53:49.910Z,-0.82
2023-01-30T06:56:18.569Z,-0.77
2023-01-30T06:58:46.654Z,-0.77
2023-01-30T07:01:16.040Z,-0.80
2023-01-30T07:03:44.034Z,-0.81
2023-01-30T07:06:11.895Z,-0.90
2023-01-30T07:08:40.931Z,-0.89
2023-01-30T07:11:08.826Z,-0.97
2023-01-30T07:13:36.828Z,-0.95
2023-01-30T07:16:04.831Z,-0.94
2023-01-30T07:18:34.194Z,-0.96
2023-01-30T07:21:02.127Z,-0.97
2023-01-30T07:23:30.057Z,-1.00
2023-01-30T07:25:57.953Z,-1.15
2023-01-30T07:28:25.838Z,-0.99
2023-01-30T07:30:53.758Z,-0.99
2023-01-30T07:33:21.778Z,-0.94
2023-01-30T07:35:51.049Z,-0.94
2023-01-30T07:38:19.049Z,-1.17
2023-01-30T07:40:46.985Z,-0.88
2023-01-30T07:43:15.849Z,-0.89
2023-01-30T07:45:45.690Z,-0.86
2023-01-30T07:48:15.309Z,-0.95
2023-01-30T07:50:43.752Z,-0.90
2023-01-30T07:53:15.278Z,-0.90
2023-01-30T07:55:43.489Z,-0.99
2023-01-30T07:58:14.692Z,-0.87
2023-01-30T08:00:42.977Z,-0.86
2023-01-30T08:03:13.542Z,-0.79
2023-01-30T08:05:41.462Z,-0.77
2023-01-30T08:08:09.468Z,-0.73
2023-01-30T08:10:38.764Z,-0.62
2023-01-30T08:13:06.691Z,-0.59
2023-01-30T08:15:34.619Z,-0.48
2023-01-30T08:18:03.223Z,-0.58
2023-01-30T08:20:31.173Z,-0.46
2023-01-30T08:23:00.662Z,-0.30
2023-01-30T08:25:28.894Z,-0.27
2023-01-30T08:28:00.370Z,-0.27
2023-01-30T08:30:29.673Z,-0.30
2023-01-30T08:32:58.827Z,-0.35
2023-01-30T08:35:27.880Z,-0.34
2023-01-30T08:37:55.983Z,-0.35
2023-01-30T08:40:24.027Z,-0.37
2023-01-30T08:42:51.963Z,-0.39
2023-01-30T08:45:21.323Z,-0.28
2023-01-30T08:47:52.299Z,-0.19
2023-01-30T08:50:20.666Z,-0.27
2023-01-30T08:52:48.714Z,-0.27
2023-01-30T08:55:18.107Z,-0.14
2023-01-30T08:57:46.037Z,-0.23
2023-01-30T09:00:15.057Z,-0.25
2023-01-30T09:02:47.568Z,-0.24
2023-01-30T09:05:15.624Z,-0.14
2023-01-30T09:07:43.594Z,-0.18
2023-01-30T09:10:12.475Z,-0.22
2023-01-30T09:12:40.553Z,-0.12
2023-01-30T09:15:10.006Z,-0.14
2023-01-30T09:17:38.391Z,-0.17
2023-01-30T09:20:09.874Z,-0.10
2023-01-30T09:22:38.137Z,-0.10
2023-01-30T09:25:07.015Z,-0.08
2023-01-30T09:27:35.216Z,-0.04
2023-01-30T09:30:03.246Z,-0.03
2023-01-30T09:32:31.176Z,-0.03
2023-01-30T09:34:59.105Z,-0.04
2023-01-30T09:37:28.416Z,0.07
2023-01-30T09:39:56.366Z,0.05
2023-01-30T09:42:47.008Z,0.07
2023-01-30T09:45:44.745Z,0.20
2023-01-30T09:48:19.651Z,0.23
2023-01-30T09:51:07.987Z,0.20
2023-01-30T09:53:49.166Z,0.22
2023-01-30T09:56:17.248Z,0.13
2023-01-30T09:58:49.033Z,0.09
2023-01-30T10:01:24.002Z,0.18
2023-01-30T10:04:06.421Z,0.25
2023-01-30T10:06:42.391Z,0.18
2023-01-30T10:09:18.409Z,0.31
2023-01-30T10:12:00.564Z,0.39
2023-01-30T10:14:51.740Z,0.42
2023-01-30T10:17:32.982Z,0.47
2023-01-30T10:20:15.193Z,0.45
2023-01-30T10:22:53.369Z,0.34
2023-01-30T10:25:30.485Z,0.37
2023-01-30T10:28:05.008Z,0.44
2023-01-30T10:30:33.672Z,0.57
2023-01-30T10:33:07.203Z,0.56
2023-01-30T10:35:38.069Z,0.51
2023-01-30T10:38:14.880Z,0.56
2023-01-30T10:40:48.585Z,0.62
2023-01-30T10:43:23.996Z,0.69
2023-01-30T10:46:02.814Z,0.76
2023-01-30T10:48:51.804Z,0.73
2023-01-30T10:51:28.964Z,0.77
2023-01-30T10:54:03.438Z,0.83
2023-01-30T10:56:41.143Z,0.91
2023-01-30T10:59:23.172Z,0.87
2023-01-30T11:01:59.393Z,0.81
2023-01-30T11:04:32.459Z,1.02
2023-01-30T11:07:02.120Z,1.10
2023-01-30T11:09:40.895Z,1.32
2023-01-30T11:12:10.417Z,1.30
2023-01-30T11:14:56.577Z,1.58
2023-01-30T11:17:32.069Z,1.70
2023-01-30T11:20:06.131Z,1.54
2023-01-30T11:22:35.957Z,1.39
2023-01-30T11:25:07.579Z,1.31
2023-01-30T11:27:36.973Z,1.26
2023-01-30T11:30:16.080Z,1.28
2023-01-30T11:32:45.256Z,1.18
2023-01-30T11:35:25.585Z,1.40
2023-01-30T11:37:54.700Z,1.45
2023-01-30T11:40:31.687Z,1.81
2023-01-30T11:43:07.243Z,1.69
2023-01-30T11:45:40.766Z,1.92
2023-01-30T11:48:33.496Z,2.01
2023-01-30T11:51:10.823Z,1.74
2023-01-30T11:53:42.397Z,2.00
2023-01-30T11:56:17.008Z,2.01
2023-01-30T11:58:50.413Z,1.74
2023-01-30T12:01:18.549Z,1.78
2023-01-30T12:03:49.988Z,1.80
2023-01-30T12:06:25.938Z,1.87
2023-01-30T12:08:56.045Z,1.98
2023-01-30T12:11:30.369Z,2.14
2023-01-30T12:14:10.350Z,2.36
2023-01-30T12:16:51.900Z,2.33
2023-01-30T12:19:30.798Z,2.68
2023-01-30T12:22:05.418Z,2.66
2023-01-30T12:24:39.686Z,2.71
2023-01-30T12:27:15.283Z,2.83
2023-01-30T12:29:58.864Z,2.84
2023-01-30T12:32:28.900Z,2.59
2023-01-30T12:34:57.438Z,2.57
2023-01-30T12:37:52.657Z,2.47
2023-01-30T12:40:32.289Z,2.33
2023-01-30T12:43:23.548Z,2.50
2023-01-30T12:46:04.592Z,2.36
2023-01-30T12:49:12.107Z,2.44
2023-01-30T12:51:57.507Z,2.40
2023-01-30T12:54:38.419Z,2.52
2023-01-30T12:57:15.867Z,2.56
2023-01-30T12:59:54.847Z,2.50
2023-01-30T13:02:47.375Z,2.44
2023-01-30T13:05:36.711Z,2.45
2023-01-30T13:08:25.046Z,2.51
2023-01-30T13:11:01.261Z,2.64
2023-01-30T13:13:43.147Z,2.65
2023-01-30T13:16:21.179Z,2.77
2023-01-30T13:18:55.688Z,2.68
2023-01-30T13:21:31.142Z,2.58
2023-01-30T13:24:15.191Z,2.50
2023-01-30T13:26:45.520Z,2.44
2023-01-30T13:29:17.441Z,2.51
2023-01-30T13:31:53.469Z,2.42
2023-01-30T13:34:29.437Z,2.42
2023-01-30T13:37:03.985Z,2.53
2023-01-30T13:39:42.526Z,2.55
2023-01-30T13:42:21.288Z,2.55
2023-01-30T13:44:51.448Z,2.40
2023-01-30T13:47:35.647Z,2.50
2023-01-30T13:50:13.782Z,2.53
2023-01-30T13:52:48.007Z,2.38
2023-01-30T13:55:26.934Z,2.38
2023-01-30T13:58:03.416Z,2.38
2023-01-30T14:00:33.289Z,2.51
2023-01-30T14:03:31.562Z,2.42
2023-01-30T14:06:33.880Z,2.42
2023-01-30T14:09:18.181Z,2.51
2023-01-30T14:11:49.893Z,2.31
2023-01-30T14:14:30.907Z,2.52
2023-01-30T14:17:10.135Z,2.30
2023-01-30T14:19:55.359Z,2.34
2023-01-30T14:22:36.288Z,2.35
2023-01-30T14:25:47.040Z,2.38
2023-01-30T14:28:53.673Z,2.34
2023-01-30T14:31:52.267Z,2.35
2023-01-30T14:34:48.149Z,2.31
2023-01-30T14:37:46.048Z,2.36
2023-01-30T14:40:37.126Z,2.47
2023-01-30T14:43:40.656Z,2.38
2023-01-30T14:46:33.963Z,2.49
2023-01-30T14:49:05.659Z,2.45
2023-01-30T14:51:37.086Z,2.45
2023-01-30T14:54:20.665Z,2.39
2023-01-30T14:56:54.231Z,2.27
2023-01-30T14:59:26.109Z,2.29
2023-01-30T15:02:00.820Z,2.33
2023-01-30T15:04:32.882Z,2.24
2023-01-30T15:07:03.631Z,2.37
2023-01-30T15:09:33.721Z,2.34
2023-01-30T15:12:21.447Z,2.31
2023-01-30T15:15:02.724Z,2.26
2023-01-30T15:17:43.065Z,2.37
2023-01-30T15:20:27.452Z,2.34
2023-01-30T15:23:13.034Z,2.29
2023-01-30T15:26:01.143Z,2.30
2023-01-30T15:28:45.929Z,2.21
2023-01-30T15:31:20.236Z,2.24
2023-01-30T15:33:53.179Z,2.14
2023-01-30T15:36:31.058Z,2.12
2023-01-30T15:39:01.910Z,2.14
2023-01-30T15:41:33.818Z,2.13
2023-01-30T15:44:20.464Z,2.06
2023-01-30T15:46:54.921Z,2.15
2023-01-30T15:49:47.599Z,2.13
2023-01-30T15:52:19.567Z,2.08
2023-01-30T15:54:53.423Z,2.08
2023-01-30T15:57:24.874Z,2.06
2023-01-30T15:59:56.630Z,1.97
2023-01-30T16:02:30.672Z,2.00
2023-01-30T16:05:17.961Z,2.05
2023-01-30T16:07:47.794Z,1.97
2023-01-30T16:10:18.297Z,1.97
2023-01-30T16:12:50.392Z,1.96
2023-01-30T16:15:25.242Z,1.99
2023-01-30T16:18:03.677Z,1.93
2023-01-30T16:20:48.700Z,1.88
2023-01-30T16:23:30.611Z,1.91
2023-01-30T16:26:01.722Z,1.93
2023-01-30T16:28:32.590Z,1.88
2023-01-30T16:31:03.862Z,1.88
2023-01-30T16:33:37.029Z,1.86
2023-01-30T16:36:07.013Z,1.79
2023-01-30T16:38:39.193Z,1.81
2023-01-30T16:41:07.162Z,1.80
2023-01-30T16:43:36.498Z,1.80
2023-01-30T16:46:40.132Z,1.77
2023-01-30T16:49:16.258Z,1.68
2023-01-30T16:51:44.597Z,1.64
2023-01-30T16:54:20.457Z,1.72
2023-01-30T16:56:52.274Z,1.72
2023-01-30T16:59:30.957Z,1.78
2023-01-30T17:01:59.967Z,1.77
2023-01-30T17:04:30.954Z,1.75
2023-01-30T17:07:01.221Z,1.71
2023-01-30T17:09:44.610Z,1.72
2023-01-30T17:12:43.716Z,1.72
2023-01-30T17:15:31.056Z,1.70
2023-01-30T17:17:59.694Z,1.73
2023-01-30T17:20:39.235Z,1.72
2023-01-30T17:23:10.651Z,1.68
2023-01-30T17:25:42.973Z,1.59
2023-01-30T17:28:21.444Z,1.68
2023-01-30T17:30:51.407Z,1.69
2023-01-30T17:33:19.440Z,1.68
2023-01-30T17:35:47.560Z,1.68
2023-01-30T17:38:15.590Z,1.71
2023-01-30T17:40:44.024Z,1.70
2023-01-30T17:43:13.291Z,1.69
2023-01-30T17:45:41.723Z,1.68
2023-01-30T17:48:13.796Z,1.70
2023-01-30T17:50:41.702Z,1.70
2023-01-30T17:53:09.622Z,1.66
2023-01-30T17:55:37.549Z,1.71
2023-01-30T17:58:05.660Z,1.70
2023-01-30T18:00:33.582Z,1.61
2023-01-30T18:03:01.514Z,1.69
2023-01-30T18:05:31.207Z,1.60
2023-01-30T18:07:59.113Z,1.52
2023-01-30T18:10:27.170Z,1.58
2023-01-30T18:12:55.068Z,1.57
2023-01-30T18:15:23.033Z,1.53
2023-01-30T18:17:54.954Z,1.61
2023-01-30T18:20:22.936Z,1.60
2023-01-30T18:22:52.345Z,1.65
2023-01-30T18:25:20.685Z,1.63
2023-01-30T18:27:48.941Z,1.61
2023-01-30T18:30:18.362Z,1.62
2023-01-30T18:32:53.607Z,1.60
2023-01-30T18:35:22.221Z,1.56
2023-01-30T18:37:51.064Z,1.53
2023-01-30T18:40:21.944Z,1.49
2023-01-30T18:42:50.314Z,1.38
2023-01-30T18:45:18.452Z,1.39
2023-01-30T18:47:46.431Z,1.48
2023-01-30T18:50:14.463Z,1.36
2023-01-30T18:52:42.407Z,1.40
2023-01-30T18:55:10.861Z,1.38
2023-01-30T18:57:40.226Z,1.31
2023-01-30T19:00:10.011Z,1.30
2023-01-30T19:02:38.079Z,1.33
2023-01-30T19:05:06.581Z,1.31
2023-01-30T19:07:36.604Z,1.32
2023-01-30T19:10:04.845Z,1.26
2023-01-30T19:12:50.369Z,1.29
2023-01-30T19:15:19.725Z,1.31
2023-01-30T19:17:47.613Z,1.23
2023-01-30T19:20:15.525Z,1.24
2023-01-30T19:22:43.407Z,1.23
2023-01-30T19:25:11.567Z,1.14
2023-01-30T19:27:39.998Z,1.14
2023-01-30T19:30:09.543Z,1.17
2023-01-30T19:32:39.949Z,1.14
2023-01-30T19:35:08.656Z,1.19
2023-01-30T19:37:38.507Z,1.14
2023-01-30T19:40:10.877Z,1.07
2023-01-30T19:42:44.404Z,1.10
2023-01-30T19:45:15.211Z,1.07
2023-01-30T19:47:45.217Z,1.11
2023-01-30T19:50:14.725Z,1.15
2023-01-30T19:52:42.616Z,1.20
2023-01-30T19:55:10.915Z,1.25
2023-01-30T19:57:39.052Z,1.19
2023-01-30T20:00:10.023Z,1.14
2023-01-30T20:02:40.650Z,1.15
2023-01-30T20:05:11.950Z,1.10
2023-01-30T20:07:42.408Z,1.02
2023-01-30T20:10:13.013Z,1.04
2023-01-30T20:12:42.938Z,1.09
2023-01-30T20:15:13.099Z,1.10
2023-01-30T20:17:42.979Z,1.09
2023-01-30T20:20:14.443Z,1.14
2023-01-30T20:22:46.199Z,1.16
2023-01-30T20:25:15.222Z,1.19
2023-01-30T20:27:45.854Z,1.23
2023-01-30T20:30:16.345Z,1.22
2023-01-30T20:32:45.413Z,1.28
2023-01-30T20:35:15.785Z,1.26
2023-01-30T20:37:45.089Z,1.21
2023-01-30T20:40:15.602Z,1.27
2023-01-30T20:42:44.781Z,1.22
2023-01-30T20:45:13.463Z,1.28
2023-01-30T20:47:42.234Z,1.40
2023-01-30T20:50:14.110Z,1.35
2023-01-30T20:52:44.248Z,1.37
2023-01-30T20:55:12.608Z,1.33
2023-01-30T20:57:43.871Z,1.11
2023-01-30T21:00:14.760Z,1.32
2023-01-30T21:02:43.327Z,1.33
2023-01-30T21:05:13.007Z,1.37
2023-01-30T21:07:41.182Z,1.38
2023-01-30T21:10:12.347Z,1.36
2023-01-30T21:12:40.528Z,1.38
2023-01-30T21:15:09.789Z,1.32
2023-01-30T21:17:38.387Z,1.38
2023-01-30T21:20:06.978Z,1.38
2023-01-30T21:22:34.917Z,1.36
2023-01-30T21:25:02.874Z,1.27
2023-01-30T21:27:32.152Z,1.30
2023-01-30T21:30:00.537Z,1.32
2023-01-30T21:32:28.441Z,1.30
2023-01-30T21:34:56.368Z,1.32
2023-01-30T21:37:41.649Z,1.41
2023-01-30T21:40:28.855Z,1.37
2023-01-30T21:43:16.282Z,1.36
2023-01-30T21:45:44.594Z,1.35
2023-01-30T21:48:12.599Z,1.35
2023-01-30T21:50:40.989Z,1.29
2023-01-30T21:53:08.988Z,1.25
2023-01-30T21:55:36.895Z,1.24
2023-01-30T21:58:06.206Z,1.27
2023-01-30T22:00:34.062Z,1.31
2023-01-30T22:03:01.982Z,1.30
2023-01-30T22:05:36.531Z,1.28
2023-01-30T22:08:05.155Z,1.31
2023-01-30T22:10:33.067Z,1.26
2023-01-30T22:13:01.320Z,1.29
2023-01-30T22:15:30.706Z,1.23
2023-01-30T22:17:58.607Z,1.28
2023-01-30T22:20:26.612Z,1.22
2023-01-30T22:22:54.977Z,1.17
2023-01-30T22:25:22.955Z,1.23
2023-01-30T22:27:50.978Z,1.24
2023-01-30T22:30:19.563Z,1.21
2023-01-30T22:32:48.878Z,1.23
2023-01-30T22:35:17.182Z,1.26
2023-01-30T22:37:45.331Z,1.09
2023-01-30T22:40:13.831Z,1.21
2023-01-30T22:42:47.613Z,1.13
2023-01-30T22:45:15.568Z,1.12
2023-01-30T22:47:43.448Z,1.12
2023-01-30T22:50:13.014Z,1.11
2023-01-30T22:52:40.877Z,1.15
2023-01-30T22:55:09.488Z,1.13
2023-01-30T22:57:37.376Z,1.14
2023-01-30T23:00:06.989Z,1.08
2023-01-30T23:02:35.927Z,0.98
2023-01-30T23:05:03.919Z,0.97
2023-01-30T23:07:33.528Z,0.92
2023-01-30T23:10:01.429Z,0.90
2023-01-30T23:12:46.775Z,0.85
2023-01-30T23:15:14.696Z,0.76
2023-01-30T23:18:00.155Z,0.74
2023-01-30T23:20:28.131Z,0.56
2023-01-30T23:22:57.382Z,0.66
2023-01-30T23:25:25.274Z,0.63
2023-01-30T23:27:53.174Z,0.58
2023-01-30T23:30:21.132Z,0.52
2023-01-30T23:32:48.990Z,0.59
2023-01-30T23:35:17.402Z,0.58
2023-01-30T23:38:03.404Z,0.58
2023-01-30T23:40:32.740Z,0.66
2023-01-30T23:43:00.638Z,0.62
2023-01-30T23:45:29.530Z,0.60
2023-01-30T23:47:57.401Z,0.67
2023-01-30T23:50:25.289Z,0.68
2023-01-30T23:52:53.228Z,0.73
2023-01-30T23:55:21.415Z,0.75
2023-01-30T23:57:50.916Z,0.74
